createdAt,value
2018-12-20T00:00:01.010Z,88.06
2018-12-20T00:01:01.084Z,88.06
2018-12-20T00:02:01.258Z,88.06
2018-12-20T00:03:01.435Z,87.58
2018-12-20T00:04:01.624Z,87.68
2018-12-20T00:05:01.817Z,87.77
2018-12-20T00:06:02.000Z,87.49
2018-12-20T00:07:02.207Z,86.91
2018-12-20T00:08:02.473Z,87.01
2018-12-20T00:09:02.667Z,87.39
2018-12-20T00:10:02.837Z,87.39
2018-12-20T00:11:03.062Z,87.30
2018-12-20T00:12:03.154Z,86.82
2018-12-20T00:13:03.396Z,86.44
2018-12-20T00:14:03.534Z,86.63
2018-12-20T00:15:03.675Z,86.91
2018-12-20T00:16:03.845Z,86.54
2018-12-20T00:17:04.077Z,87.11
2018-12-20T00:18:04.203Z,87.11
2018-12-20T00:19:04.488Z,87.01
2018-12-20T00:20:04.691Z,86.91
2018-12-20T00:21:04.763Z,87.01
2018-12-20T00:22:05.097Z,87.68
2018-12-20T00:23:05.219Z,87.68
2018-12-20T00:24:05.348Z,88.06
2018-12-20T00:25:05.615Z,87.96
2018-12-20T00:26:05.704Z,87.39
2018-12-20T00:27:05.973Z,87.77
2018-12-20T00:28:06.046Z,87.77
2018-12-20T00:29:06.252Z,87.49
2018-12-20T00:30:06.496Z,87.87
2018-12-20T00:31:13.440Z,87.39
2018-12-20T00:32:06.813Z,87.96
2018-12-20T00:33:06.952Z,87.96
2018-12-20T00:34:07.350Z,87.96
2018-12-20T00:35:07.532Z,88.06
2018-12-20T00:36:07.573Z,87.68
2018-12-20T00:37:07.893Z,86.82
2018-12-20T00:38:07.996Z,86.63
2018-12-20T00:39:08.136Z,86.72
2018-12-20T00:40:08.418Z,86.72
2018-12-20T00:41:08.479Z,86.25
2018-12-20T00:42:08.712Z,86.35
2018-12-20T00:43:08.865Z,86.63
2018-12-20T00:44:09.042Z,86.72
2018-12-20T00:45:09.225Z,86.91
2018-12-20T00:46:09.416Z,86.07
2018-12-20T00:47:09.683Z,86.25
2018-12-20T00:48:09.801Z,86.44
2018-12-20T00:49:10.025Z,86.54
2018-12-20T00:50:10.282Z,86.44
2018-12-20T00:51:10.342Z,86.35
2018-12-20T00:52:10.542Z,85.87
2018-12-20T00:53:10.728Z,86.07
2018-12-20T00:54:10.955Z,86.25
2018-12-20T00:55:11.170Z,86.35
2018-12-20T00:56:11.279Z,86.16
2018-12-20T00:57:11.515Z,86.16
2018-12-20T00:58:11.625Z,85.97
2018-12-20T00:59:11.922Z,85.59
2018-12-20T01:00:11.982Z,85.97
2018-12-20T01:01:12.265Z,85.97
2018-12-20T01:02:12.353Z,85.87
2018-12-20T01:03:12.556Z,85.97
2018-12-20T01:04:12.721Z,85.68
2018-12-20T01:05:12.910Z,85.68
2018-12-20T01:06:13.247Z,86.35
2018-12-20T01:07:13.277Z,86.07
2018-12-20T01:08:13.596Z,86.35
2018-12-20T01:09:13.763Z,86.54
2018-12-20T01:10:13.815Z,86.44
2018-12-20T01:11:14.191Z,86.35
2018-12-20T01:12:14.177Z,86.16
2018-12-20T01:13:14.361Z,86.25
2018-12-20T01:14:14.574Z,86.35
2018-12-20T01:15:14.721Z,86.35
2018-12-20T01:16:14.904Z,86.35
2018-12-20T01:17:15.142Z,86.35
2018-12-20T01:18:15.414Z,87.01
2018-12-20T01:19:15.471Z,86.54
2018-12-20T01:20:15.652Z,86.72
2018-12-20T01:21:15.843Z,86.63
2018-12-20T01:22:16.015Z,87.20
2018-12-20T01:23:16.195Z,87.20
2018-12-20T01:24:16.506Z,87.01
2018-12-20T01:25:16.560Z,87.20
2018-12-20T01:26:16.769Z,87.30
2018-12-20T01:27:17.016Z,87.39
2018-12-20T01:28:17.238Z,87.20
2018-12-20T01:29:17.396Z,87.39
2018-12-20T01:30:17.485Z,87.49
2018-12-20T01:31:17.798Z,87.68
2018-12-20T01:32:17.869Z,87.87
2018-12-20T01:33:18.050Z,88.15
2018-12-20T01:34:18.223Z,87.87
2018-12-20T01:35:18.499Z,88.06
2018-12-20T01:36:18.591Z,87.96
2018-12-20T01:37:18.766Z,87.96
2018-12-20T01:38:19.123Z,87.68
2018-12-20T01:39:19.231Z,87.30
2018-12-20T01:40:19.309Z,87.96
2018-12-20T01:41:19.498Z,87.68
2018-12-20T01:42:19.677Z,87.68
2018-12-20T01:43:19.865Z,87.20
2018-12-20T01:44:20.046Z,87.49
2018-12-20T01:45:20.367Z,87.68
2018-12-20T01:46:20.574Z,87.39
2018-12-20T01:47:20.754Z,87.68
2018-12-20T01:48:20.773Z,87.68
2018-12-20T01:49:20.938Z,87.77
2018-12-20T01:50:21.119Z,87.87
2018-12-20T01:51:21.463Z,87.49
2018-12-20T01:52:21.481Z,87.77
2018-12-20T01:53:21.803Z,87.87
2018-12-20T01:54:21.848Z,88.06
2018-12-20T01:55:22.095Z,88.91
2018-12-20T01:56:22.213Z,88.43
2018-12-20T01:57:22.397Z,88.24
2018-12-20T01:58:22.694Z,88.43
2018-12-20T01:59:22.785Z,89.00
2018-12-20T02:00:23.045Z,88.62
2018-12-20T02:01:23.431Z,89.20
2018-12-20T02:02:23.384Z,89.67
2018-12-20T02:03:23.646Z,88.72
2018-12-20T02:04:23.845Z,88.81
2018-12-20T02:05:23.861Z,89.86
2018-12-20T02:06:24.050Z,89.39
2018-12-20T02:07:24.224Z,89.39
2018-12-20T02:08:24.408Z,89.48
2018-12-20T02:09:24.623Z,89.95
2018-12-20T02:10:24.788Z,89.29
2018-12-20T02:11:25.119Z,89.43
2018-12-20T02:12:25.209Z,89.39
2018-12-20T02:13:25.333Z,90.19
2018-12-20T02:14:25.628Z,90.28
2018-12-20T02:15:25.713Z,89.43
2018-12-20T02:16:25.906Z,89.33
2018-12-20T02:17:26.177Z,90.05
2018-12-20T02:18:26.305Z,89.48
2018-12-20T02:19:26.426Z,89.43
2018-12-20T02:20:26.763Z,89.90
2018-12-20T02:21:26.816Z,90.00
2018-12-20T02:22:26.984Z,89.90
2018-12-20T02:23:27.321Z,89.81
2018-12-20T02:24:27.341Z,89.53
2018-12-20T02:25:27.685Z,89.90
2018-12-20T02:26:27.791Z,89.24
2018-12-20T02:27:27.889Z,89.43
2018-12-20T02:28:28.069Z,88.76
2018-12-20T02:29:28.520Z,87.96
2018-12-20T02:30:28.600Z,87.96
2018-12-20T02:31:28.631Z,88.43
2018-12-20T02:32:28.816Z,88.62
2018-12-20T02:33:29.015Z,89.00
2018-12-20T02:34:29.348Z,88.67
2018-12-20T02:35:29.754Z,88.20
2018-12-20T02:36:29.700Z,88.29
2018-12-20T02:37:29.760Z,87.87
2018-12-20T02:38:30.091Z,88.67
2018-12-20T02:39:30.099Z,87.87
2018-12-20T02:40:30.267Z,87.96
2018-12-20T02:41:30.690Z,87.96
2018-12-20T02:42:30.933Z,87.82
2018-12-20T02:43:31.005Z,87.77
2018-12-20T02:44:31.203Z,87.96
2018-12-20T02:45:31.370Z,87.49
2018-12-20T02:46:31.352Z,87.68
2018-12-20T02:47:31.728Z,86.91
2018-12-20T02:48:31.717Z,86.82
2018-12-20T02:49:31.953Z,86.63
2018-12-20T02:50:32.316Z,86.72
2018-12-20T02:51:32.267Z,86.72
2018-12-20T02:52:32.449Z,86.63
2018-12-20T02:53:32.727Z,86.54
2018-12-20T02:54:32.920Z,86.16
2018-12-20T02:55:33.005Z,85.68
2018-12-20T02:56:33.192Z,85.87
2018-12-20T02:57:33.374Z,85.59
2018-12-20T02:58:33.615Z,85.68
2018-12-20T02:59:33.739Z,85.97
2018-12-20T03:00:34.039Z,86.07
2018-12-20T03:01:34.254Z,86.16
2018-12-20T03:02:34.284Z,85.87
2018-12-20T03:03:34.463Z,86.72
2018-12-20T03:04:34.836Z,86.72
2018-12-20T03:05:34.834Z,87.20
2018-12-20T03:06:35.027Z,87.11
2018-12-20T03:07:35.324Z,87.49
2018-12-20T03:08:35.570Z,87.20
2018-12-20T03:09:35.658Z,86.54
2018-12-20T03:10:35.780Z,86.91
2018-12-20T03:11:35.955Z,86.91
2018-12-20T03:12:36.377Z,86.91
2018-12-20T03:13:36.532Z,87.01
2018-12-20T03:14:36.576Z,86.82
2018-12-20T03:15:36.659Z,86.35
2018-12-20T03:16:36.948Z,86.63
2018-12-20T03:17:37.236Z,87.20
2018-12-20T03:18:37.232Z,86.72
2018-12-20T03:19:37.608Z,86.72
2018-12-20T03:20:37.834Z,86.91
2018-12-20T03:21:37.808Z,86.91
2018-12-20T03:22:38.004Z,86.63
2018-12-20T03:23:38.343Z,86.82
2018-12-20T03:24:38.369Z,86.63
2018-12-20T03:25:38.750Z,86.91
2018-12-20T03:26:38.799Z,87.30
2018-12-20T03:27:39.115Z,86.91
2018-12-20T03:28:39.323Z,87.30
2018-12-20T03:29:39.482Z,86.82
2018-12-20T03:30:39.591Z,86.44
2018-12-20T03:31:39.883Z,86.72
2018-12-20T03:32:39.855Z,85.97
2018-12-20T03:33:40.563Z,85.59
2018-12-20T03:34:40.318Z,85.78
2018-12-20T03:35:40.356Z,85.87
2018-12-20T03:36:40.575Z,85.78
2018-12-20T03:37:40.770Z,85.49
2018-12-20T03:38:41.019Z,85.87
2018-12-20T03:39:41.110Z,85.59
2018-12-20T03:40:41.673Z,84.92
2018-12-20T03:41:41.503Z,84.55
2018-12-20T03:42:41.854Z,85.02
2018-12-20T03:43:41.852Z,84.64
2018-12-20T03:44:42.109Z,84.45
2018-12-20T03:45:42.209Z,85.02
2018-12-20T03:46:42.391Z,85.02
2018-12-20T03:47:42.570Z,85.11
2018-12-20T03:48:42.764Z,84.64
2018-12-20T03:49:43.001Z,84.64
2018-12-20T03:50:43.183Z,84.64
2018-12-20T03:51:43.515Z,84.74
2018-12-20T03:52:43.677Z,84.83
2018-12-20T03:53:43.914Z,84.83
2018-12-20T03:54:43.971Z,84.92
2018-12-20T03:55:44.243Z,84.83
2018-12-20T03:56:44.260Z,84.45
2018-12-20T03:57:44.394Z,84.64
2018-12-20T03:58:44.833Z,84.55
2018-12-20T03:59:44.753Z,85.02
2018-12-20T04:00:45.100Z,84.64
2018-12-20T04:01:45.135Z,85.02
2018-12-20T04:02:45.457Z,84.83
2018-12-20T04:03:45.492Z,84.74
2018-12-20T04:04:45.715Z,85.40
2018-12-20T04:05:45.895Z,85.68
2018-12-20T04:06:46.129Z,85.30
2018-12-20T04:07:46.309Z,84.83
2018-12-20T04:08:46.400Z,84.92
2018-12-20T04:09:46.591Z,84.55
2018-12-20T04:10:46.801Z,84.36
2018-12-20T04:11:46.948Z,85.02
2018-12-20T04:12:47.255Z,84.64
2018-12-20T04:13:47.342Z,84.45
2018-12-20T04:14:47.517Z,85.11
2018-12-20T04:15:47.692Z,84.55
2018-12-20T04:16:48.057Z,84.55
2018-12-20T04:17:48.073Z,85.02
2018-12-20T04:18:48.262Z,84.92
2018-12-20T04:19:48.419Z,84.36
2018-12-20T04:20:48.842Z,84.45
2018-12-20T04:21:49.052Z,84.45
2018-12-20T04:22:49.186Z,84.74
2018-12-20T04:23:49.157Z,85.21
2018-12-20T04:24:49.493Z,85.02
2018-12-20T04:25:49.723Z,85.02
2018-12-20T04:26:49.692Z,85.97
2018-12-20T04:27:49.942Z,85.78
2018-12-20T04:28:50.056Z,85.49
2018-12-20T04:29:50.275Z,85.68
2018-12-20T04:30:50.611Z,85.59
2018-12-20T04:31:50.633Z,85.59
2018-12-20T04:32:50.794Z,85.68
2018-12-20T04:33:51.081Z,85.78
2018-12-20T04:34:51.302Z,85.21
2018-12-20T04:35:51.442Z,84.92
2018-12-20T04:36:51.624Z,84.74
2018-12-20T04:37:51.902Z,85.02
2018-12-20T04:38:52.001Z,85.11
2018-12-20T04:39:52.189Z,85.02
2018-12-20T04:40:52.455Z,85.02
2018-12-20T04:41:52.575Z,85.82
2018-12-20T04:42:52.709Z,86.16
2018-12-20T04:43:52.948Z,85.97
2018-12-20T04:44:53.003Z,86.25
2018-12-20T04:45:53.186Z,85.97
2018-12-20T04:46:53.616Z,85.78
2018-12-20T04:47:53.563Z,86.30
2018-12-20T04:48:53.948Z,86.16
2018-12-20T04:49:54.095Z,86.30
2018-12-20T04:50:54.121Z,86.39
2018-12-20T04:51:54.291Z,87.05
2018-12-20T04:52:54.575Z,86.77
2018-12-20T04:53:54.704Z,86.68
2018-12-20T04:54:55.102Z,86.96
2018-12-20T04:55:55.100Z,86.96
2018-12-20T04:56:55.249Z,86.96
2018-12-20T04:57:55.607Z,86.30
2018-12-20T04:58:55.667Z,86.68
2018-12-20T04:59:55.924Z,86.49
2018-12-20T05:00:55.942Z,86.39
2018-12-20T05:01:56.249Z,86.58
2018-12-20T05:02:56.450Z,86.39
2018-12-20T05:03:56.514Z,86.44
2018-12-20T05:04:56.918Z,86.58
2018-12-20T05:05:56.854Z,86.77
2018-12-20T05:06:57.246Z,86.58
2018-12-20T05:07:57.210Z,86.35
2018-12-20T05:08:57.555Z,86.07
2018-12-20T05:09:57.574Z,85.78
2018-12-20T05:10:57.945Z,85.87
2018-12-20T05:11:57.959Z,85.59
2018-12-20T05:12:58.140Z,85.68
2018-12-20T05:13:58.322Z,85.97
2018-12-20T05:14:58.600Z,85.68
2018-12-20T05:15:58.875Z,85.49
2018-12-20T05:16:58.851Z,85.68
2018-12-20T05:17:59.029Z,86.16
2018-12-20T05:18:59.266Z,85.78
2018-12-20T05:19:59.391Z,86.07
2018-12-20T05:20:59.867Z,85.72
2018-12-20T05:21:59.826Z,85.59
2018-12-20T05:22:59.945Z,85.49
2018-12-20T05:24:00.198Z,86.07
2018-12-20T05:25:00.303Z,85.72
2018-12-20T05:26:00.595Z,85.87
2018-12-20T05:27:00.677Z,86.01
2018-12-20T05:28:00.870Z,86.01
2018-12-20T05:29:01.238Z,85.97
2018-12-20T05:30:01.286Z,85.68
2018-12-20T05:31:01.449Z,85.30
2018-12-20T05:32:01.655Z,85.21
2018-12-20T05:33:01.945Z,84.83
2018-12-20T05:34:01.952Z,84.74
2018-12-20T05:35:02.189Z,84.26
2018-12-20T05:36:02.382Z,84.55
2018-12-20T05:37:02.526Z,84.45
2018-12-20T05:38:02.699Z,84.55
2018-12-20T05:39:03.098Z,84.97
2018-12-20T05:40:03.108Z,84.68
2018-12-20T05:41:03.273Z,84.74
2018-12-20T05:42:03.583Z,85.06
2018-12-20T05:43:03.834Z,85.25
2018-12-20T05:44:03.837Z,85.91
2018-12-20T05:45:04.030Z,85.91
2018-12-20T05:46:04.705Z,85.91
2018-12-20T05:47:04.385Z,86.11
2018-12-20T05:48:04.545Z,86.01
2018-12-20T05:49:04.793Z,86.11
2018-12-20T05:50:04.917Z,86.01
2018-12-20T05:51:05.087Z,86.20
2018-12-20T05:52:05.260Z,86.20
2018-12-20T05:53:05.467Z,86.20
2018-12-20T05:54:05.689Z,86.77
2018-12-20T05:55:06.057Z,86.30
2018-12-20T05:56:06.007Z,87.15
2018-12-20T05:57:06.264Z,86.96
2018-12-20T05:58:06.570Z,87.15
2018-12-20T05:59:06.540Z,86.77
2018-12-20T06:00:06.938Z,87.24
2018-12-20T06:01:06.910Z,86.77
2018-12-20T06:02:07.137Z,86.58
2018-12-20T06:03:07.493Z,86.49
2018-12-20T06:04:07.462Z,86.58
2018-12-20T06:05:07.852Z,86.30
2018-12-20T06:06:07.871Z,86.11
2018-12-20T06:07:08.045Z,86.01
2018-12-20T06:08:08.431Z,86.20
2018-12-20T06:09:08.517Z,85.63
2018-12-20T06:10:08.653Z,86.01
2018-12-20T06:11:08.941Z,85.40
2018-12-20T06:12:09.215Z,85.02
2018-12-20T06:13:09.260Z,84.78
2018-12-20T06:14:09.377Z,84.64
2018-12-20T06:15:09.699Z,84.59
2018-12-20T06:16:12.971Z,84.55
2018-12-20T06:17:09.968Z,84.55
2018-12-20T06:18:10.329Z,84.07
2018-12-20T06:19:10.382Z,84.26
2018-12-20T06:20:10.607Z,83.88
2018-12-20T06:21:10.690Z,84.07
2018-12-20T06:22:10.809Z,84.36
2018-12-20T06:23:10.996Z,84.26
2018-12-20T06:24:11.177Z,84.17
2018-12-20T06:25:11.370Z,84.01
2018-12-20T06:26:11.547Z,84.78
2018-12-20T06:27:11.731Z,84.59
2018-12-20T06:28:11.912Z,84.40
2018-12-20T06:29:12.091Z,84.49
2018-12-20T06:30:12.279Z,84.36
2018-12-20T06:31:12.461Z,84.97
2018-12-20T06:32:12.670Z,84.49
2018-12-20T06:33:12.834Z,84.68
2018-12-20T06:34:13.017Z,84.97
2018-12-20T06:35:13.205Z,84.68
2018-12-20T06:36:13.385Z,85.06
2018-12-20T06:37:13.570Z,84.49
2018-12-20T06:38:13.752Z,84.97
2018-12-20T06:39:13.932Z,84.59
2018-12-20T06:40:16.320Z,84.59
2018-12-20T06:41:14.301Z,84.83
2018-12-20T06:42:14.477Z,84.17
2018-12-20T06:43:14.665Z,84.36
2018-12-20T06:44:14.847Z,84.59
2018-12-20T06:45:15.041Z,84.11
2018-12-20T06:46:21.076Z,85.11
2018-12-20T06:47:15.396Z,84.59
2018-12-20T06:48:15.575Z,84.40
2018-12-20T06:49:15.757Z,84.49
2018-12-20T06:50:15.942Z,84.40
2018-12-20T06:51:16.125Z,84.40
2018-12-20T06:52:16.317Z,84.40
2018-12-20T06:53:16.498Z,84.55
2018-12-20T06:54:16.684Z,84.87
2018-12-20T06:55:16.871Z,84.74
2018-12-20T06:56:17.054Z,84.59
2018-12-20T06:57:17.245Z,84.87
2018-12-20T06:58:17.434Z,84.68
2018-12-20T06:59:17.609Z,84.59
2018-12-20T07:00:17.791Z,84.40
2018-12-20T07:01:17.972Z,84.59
2018-12-20T07:02:18.165Z,84.21
2018-12-20T07:03:18.349Z,84.87
2018-12-20T07:04:18.529Z,84.59
2018-12-20T07:05:18.714Z,84.68
2018-12-20T07:06:18.897Z,84.87
2018-12-20T07:07:19.080Z,84.45
2018-12-20T07:08:19.261Z,84.40
2018-12-20T07:09:19.442Z,84.78
2018-12-20T07:10:19.620Z,84.30
2018-12-20T07:11:19.795Z,83.92
2018-12-20T07:12:19.992Z,84.21
2018-12-20T07:13:20.173Z,84.40
2018-12-20T07:14:20.351Z,84.07
2018-12-20T07:15:20.528Z,84.01
2018-12-20T07:16:20.712Z,84.17
2018-12-20T07:17:20.894Z,84.36
2018-12-20T07:18:21.073Z,84.17
2018-12-20T07:19:21.262Z,84.01
2018-12-20T07:20:21.440Z,83.83
2018-12-20T07:21:21.636Z,83.97
2018-12-20T07:22:21.817Z,84.36
2018-12-20T07:23:22.004Z,84.45
2018-12-20T07:24:22.189Z,83.50
2018-12-20T07:25:22.389Z,83.59
2018-12-20T07:26:22.557Z,83.31
2018-12-20T07:27:22.739Z,83.54
2018-12-20T07:28:22.926Z,83.69
2018-12-20T07:29:23.109Z,83.40
2018-12-20T07:30:23.290Z,83.31
2018-12-20T07:31:23.483Z,83.78
2018-12-20T07:32:25.370Z,83.40
2018-12-20T07:33:23.836Z,83.40
2018-12-20T07:34:24.019Z,83.69
2018-12-20T07:35:24.204Z,83.59
2018-12-20T07:36:24.384Z,83.50
2018-12-20T07:37:24.581Z,83.73
2018-12-20T07:38:24.751Z,83.64
2018-12-20T07:39:24.938Z,83.40
2018-12-20T07:40:25.110Z,83.54
2018-12-20T07:41:25.296Z,84.11
2018-12-20T07:42:25.481Z,83.83
2018-12-20T07:43:25.663Z,84.36
2018-12-20T07:44:25.841Z,84.36
2018-12-20T07:45:26.025Z,84.11
2018-12-20T07:46:26.208Z,84.21
2018-12-20T07:47:26.401Z,84.40
2018-12-20T07:48:32.149Z,84.64
2018-12-20T07:49:26.784Z,84.01
2018-12-20T07:50:26.971Z,84.07
2018-12-20T07:51:27.158Z,84.26
2018-12-20T07:52:27.360Z,84.11
2018-12-20T07:53:27.546Z,84.97
2018-12-20T07:54:27.727Z,84.36
2018-12-20T07:55:27.902Z,85.02
2018-12-20T07:56:28.100Z,84.68
2018-12-20T07:57:28.267Z,85.16
2018-12-20T07:58:28.452Z,85.44
2018-12-20T07:59:28.641Z,85.44
2018-12-20T08:00:28.831Z,85.53
2018-12-20T08:01:29.023Z,85.25
2018-12-20T08:02:29.189Z,86.01
2018-12-20T08:03:29.384Z,85.91
2018-12-20T08:04:29.569Z,85.72
2018-12-20T08:05:29.767Z,85.63
2018-12-20T08:06:29.949Z,85.91
2018-12-20T08:07:30.154Z,85.91
2018-12-20T08:08:30.309Z,85.91
2018-12-20T08:09:30.509Z,85.91
2018-12-20T08:10:30.711Z,85.82
2018-12-20T08:11:30.888Z,86.11
2018-12-20T08:12:31.077Z,85.25
2018-12-20T08:13:31.272Z,85.53
2018-12-20T08:14:31.451Z,85.44
2018-12-20T08:15:31.647Z,85.16
2018-12-20T08:16:31.826Z,85.16
2018-12-20T08:17:33.228Z,84.78
2018-12-20T08:18:32.241Z,85.06
2018-12-20T08:19:36.288Z,84.97
2018-12-20T08:20:32.581Z,84.97
2018-12-20T08:21:32.831Z,84.97
2018-12-20T08:22:33.008Z,84.97
2018-12-20T08:23:33.184Z,84.97
2018-12-20T08:24:33.379Z,84.78
2018-12-20T08:25:33.580Z,84.87
2018-12-20T08:26:33.755Z,84.49
2018-12-20T08:27:33.934Z,84.87
2018-12-20T08:28:34.122Z,84.87
2018-12-20T08:29:34.295Z,84.78
2018-12-20T08:30:34.485Z,84.40
2018-12-20T08:31:34.655Z,84.40
2018-12-20T08:32:34.838Z,84.49
2018-12-20T08:33:35.024Z,84.78
2018-12-20T08:34:35.207Z,84.78
2018-12-20T08:35:35.388Z,85.44
2018-12-20T08:36:35.579Z,85.63
2018-12-20T08:37:35.765Z,85.16
2018-12-20T08:38:35.946Z,85.16
2018-12-20T08:39:36.132Z,85.91
2018-12-20T08:40:36.307Z,85.82
2018-12-20T08:41:36.526Z,85.91
2018-12-20T08:42:36.695Z,85.53
2018-12-20T08:43:36.880Z,85.53
2018-12-20T08:44:37.055Z,86.39
2018-12-20T08:45:37.241Z,86.11
2018-12-20T08:46:37.432Z,86.30
2018-12-20T08:47:37.609Z,85.82
2018-12-20T08:48:37.799Z,86.11
2018-12-20T08:49:37.985Z,86.11
2018-12-20T08:50:38.177Z,86.39
2018-12-20T08:51:38.361Z,86.39
2018-12-20T08:52:38.537Z,86.34
2018-12-20T08:53:38.721Z,86.87
2018-12-20T08:54:38.912Z,86.49
2018-12-20T08:55:39.095Z,87.29
2018-12-20T08:56:39.277Z,87.19
2018-12-20T08:57:39.459Z,87.01
2018-12-20T08:58:39.636Z,87.29
2018-12-20T08:59:39.821Z,87.57
2018-12-20T09:00:40.011Z,87.29
2018-12-20T09:01:40.188Z,88.15
2018-12-20T09:02:40.372Z,87.95
2018-12-20T09:03:40.558Z,87.86
2018-12-20T09:04:40.744Z,88.24
2018-12-20T09:05:40.932Z,87.86
2018-12-20T09:06:41.121Z,87.19
2018-12-20T09:07:41.301Z,87.19
2018-12-20T09:08:41.484Z,87.01
2018-12-20T09:09:41.667Z,86.82
2018-12-20T09:10:41.850Z,87.01
2018-12-20T09:11:42.039Z,87.19
2018-12-20T09:12:42.221Z,86.43
2018-12-20T09:13:42.408Z,86.15
2018-12-20T09:14:42.597Z,85.96
2018-12-20T09:15:42.780Z,85.96
2018-12-20T09:16:42.965Z,86.15
2018-12-20T09:17:43.147Z,86.05
2018-12-20T09:18:43.330Z,86.05
2018-12-20T09:19:43.516Z,85.68
2018-12-20T09:20:43.704Z,85.20
2018-12-20T09:21:43.877Z,85.86
2018-12-20T09:22:44.061Z,85.39
2018-12-20T09:23:44.245Z,85.20
2018-12-20T09:24:44.430Z,85.49
2018-12-20T09:25:44.612Z,84.82
2018-12-20T09:26:44.791Z,85.20
2018-12-20T09:27:44.975Z,86.05
2018-12-20T09:28:45.160Z,85.86
2018-12-20T09:29:45.339Z,86.24
2018-12-20T09:30:45.523Z,86.05
2018-12-20T09:31:45.706Z,86.15
2018-12-20T09:32:45.889Z,86.15
2018-12-20T09:33:46.066Z,85.96
2018-12-20T09:34:46.262Z,85.96
2018-12-20T09:35:46.442Z,86.63
2018-12-20T09:36:46.628Z,85.96
2018-12-20T09:37:46.813Z,86.24
2018-12-20T09:38:47.000Z,86.91
2018-12-20T09:39:47.178Z,86.53
2018-12-20T09:40:47.365Z,86.34
2018-12-20T09:41:47.549Z,86.24
2018-12-20T09:42:47.733Z,86.05
2018-12-20T09:43:47.921Z,86.24
2018-12-20T09:44:48.095Z,86.24
2018-12-20T09:45:48.280Z,86.15
2018-12-20T09:46:48.489Z,85.77
2018-12-20T09:47:48.646Z,85.77
2018-12-20T09:48:48.823Z,86.24
2018-12-20T09:49:49.009Z,86.24
2018-12-20T09:50:49.188Z,85.86
2018-12-20T09:51:49.374Z,86.15
2018-12-20T09:52:49.561Z,85.96
2018-12-20T09:53:49.749Z,86.24
2018-12-20T09:54:49.937Z,87.01
2018-12-20T09:55:50.114Z,87.01
2018-12-20T09:56:50.302Z,87.86
2018-12-20T09:57:50.485Z,88.24
2018-12-20T09:58:50.678Z,88.15
2018-12-20T09:59:50.851Z,87.67
2018-12-20T10:00:51.035Z,87.76
2018-12-20T10:01:51.220Z,87.67
2018-12-20T10:02:51.398Z,87.29
2018-12-20T10:03:51.581Z,88.15
2018-12-20T10:04:51.771Z,88.90
2018-12-20T10:05:51.949Z,89.23
2018-12-20T10:06:52.131Z,89.71
2018-12-20T10:07:52.317Z,89.52
2018-12-20T10:08:52.498Z,89.14
2018-12-20T10:09:52.685Z,89.52
2018-12-20T10:10:52.867Z,89.42
2018-12-20T10:11:53.118Z,88.90
2018-12-20T10:12:53.230Z,88.71
2018-12-20T10:13:53.417Z,87.76
2018-12-20T10:14:53.601Z,88.38
2018-12-20T10:15:53.787Z,88.09
2018-12-20T10:16:53.968Z,88.95
2018-12-20T10:17:54.156Z,88.85
2018-12-20T10:18:54.348Z,88.57
2018-12-20T10:19:54.532Z,87.81
2018-12-20T10:20:54.707Z,88.76
2018-12-20T10:21:54.886Z,88.67
2018-12-20T10:22:55.071Z,88.67
2018-12-20T10:23:55.262Z,88.38
2018-12-20T10:24:55.451Z,88.67
2018-12-20T10:25:55.640Z,89.14
2018-12-20T10:26:55.816Z,88.95
2018-12-20T10:27:56.019Z,88.67
2018-12-20T10:28:56.206Z,88.95
2018-12-20T10:29:56.392Z,89.80
2018-12-20T10:30:56.574Z,90.19
2018-12-20T10:31:56.762Z,90.19
2018-12-20T10:32:56.943Z,90.47
2018-12-20T10:33:57.128Z,90.61
2018-12-20T10:34:57.311Z,90.94
2018-12-20T10:35:57.491Z,91.18
2018-12-20T10:36:57.676Z,90.94
2018-12-20T10:37:57.856Z,91.04
2018-12-20T10:38:58.043Z,90.56
2018-12-20T10:39:58.223Z,90.47
2018-12-20T10:40:58.408Z,90.56
2018-12-20T10:41:58.600Z,90.56
2018-12-20T10:42:58.787Z,90.47
2018-12-20T10:43:58.966Z,90.56
2018-12-20T10:44:59.156Z,90.47
2018-12-20T10:45:59.336Z,90.28
2018-12-20T10:46:59.520Z,89.71
2018-12-20T10:47:59.704Z,89.80
2018-12-20T10:48:59.887Z,89.42
2018-12-20T10:50:00.081Z,89.33
2018-12-20T10:51:00.266Z,89.23
2018-12-20T10:52:00.449Z,88.85
2018-12-20T10:53:00.639Z,89.14
2018-12-20T10:54:00.820Z,89.23
2018-12-20T10:55:01.006Z,89.33
2018-12-20T10:56:01.186Z,89.04
2018-12-20T10:57:01.365Z,89.80
2018-12-20T10:58:01.549Z,89.71
2018-12-20T10:59:01.733Z,89.61
2018-12-20T11:00:01.914Z,89.90
2018-12-20T11:01:02.207Z,89.80
2018-12-20T11:02:02.278Z,90.19
2018-12-20T11:03:02.465Z,90.37
2018-12-20T11:04:03.259Z,90.00
2018-12-20T11:05:02.837Z,90.37
2018-12-20T11:06:03.027Z,90.37
2018-12-20T11:07:03.211Z,90.09
2018-12-20T11:08:03.397Z,90.75
2018-12-20T11:09:03.586Z,90.47
2018-12-20T11:10:03.769Z,90.19
2018-12-20T11:11:03.960Z,90.00
2018-12-20T11:12:04.142Z,90.23
2018-12-20T11:13:04.332Z,91.28
2018-12-20T11:14:04.522Z,91.08
2018-12-20T11:15:04.709Z,91.85
2018-12-20T11:16:04.899Z,91.18
2018-12-20T11:17:05.090Z,91.47
2018-12-20T11:18:05.272Z,91.66
2018-12-20T11:19:05.463Z,91.08
2018-12-20T11:20:05.639Z,91.08
2018-12-20T11:21:05.827Z,90.99
2018-12-20T11:22:06.005Z,90.99
2018-12-20T11:23:06.205Z,91.37
2018-12-20T11:24:06.381Z,92.32
2018-12-20T11:25:06.575Z,90.80
2018-12-20T11:26:06.760Z,90.80
2018-12-20T11:27:06.946Z,90.80
2018-12-20T11:28:07.142Z,91.18
2018-12-20T11:29:07.317Z,90.70
2018-12-20T11:30:07.510Z,91.89
2018-12-20T11:31:07.686Z,91.18
2018-12-20T11:32:07.871Z,91.61
2018-12-20T11:33:08.056Z,91.18
2018-12-20T11:34:08.242Z,91.99
2018-12-20T11:35:08.430Z,91.80
2018-12-20T11:36:08.609Z,91.42
2018-12-20T11:37:08.801Z,91.23
2018-12-20T11:38:08.995Z,90.75
2018-12-20T11:39:09.196Z,91.23
2018-12-20T11:40:09.357Z,90.37
2018-12-20T11:41:09.547Z,90.85
2018-12-20T11:42:09.722Z,90.37
2018-12-20T11:43:09.912Z,90.47
2018-12-20T11:44:10.090Z,90.75
2018-12-20T11:45:10.271Z,90.09
2018-12-20T11:46:10.450Z,90.19
2018-12-20T11:47:10.650Z,90.19
2018-12-20T11:48:10.826Z,90.47
2018-12-20T11:49:11.013Z,90.66
2018-12-20T11:50:11.195Z,90.66
2018-12-20T11:51:11.375Z,90.66
2018-12-20T11:52:11.559Z,90.47
2018-12-20T11:53:11.741Z,90.75
2018-12-20T11:54:11.927Z,90.47
2018-12-20T11:55:12.110Z,90.85
2018-12-20T11:56:12.305Z,90.94
2018-12-20T11:57:12.485Z,90.47
2018-12-20T11:58:12.667Z,90.47
2018-12-20T11:59:12.863Z,90.47
2018-12-20T12:00:13.049Z,90.52
2018-12-20T12:01:13.227Z,90.56
2018-12-20T12:02:13.412Z,90.75
2018-12-20T12:03:13.604Z,90.85
2018-12-20T12:04:13.898Z,90.47
2018-12-20T12:05:13.932Z,90.37
2018-12-20T12:06:14.119Z,90.56
2018-12-20T12:07:14.320Z,90.28
2018-12-20T12:08:14.504Z,90.56
2018-12-20T12:09:14.687Z,89.90
2018-12-20T12:10:14.870Z,90.37
2018-12-20T12:11:15.075Z,90.37
2018-12-20T12:12:15.258Z,90.00
2018-12-20T12:13:15.441Z,90.19
2018-12-20T12:14:15.624Z,90.19
2018-12-20T12:15:15.808Z,90.28
2018-12-20T12:16:15.990Z,90.09
2018-12-20T12:17:16.170Z,90.37
2018-12-20T12:18:16.359Z,90.47
2018-12-20T12:19:16.538Z,90.94
2018-12-20T12:20:16.982Z,90.47
2018-12-20T12:21:16.915Z,90.75
2018-12-20T12:22:17.105Z,90.09
2018-12-20T12:23:17.280Z,90.66
2018-12-20T12:24:17.460Z,90.85
2018-12-20T12:25:17.648Z,90.75
2018-12-20T12:26:17.835Z,90.94
2018-12-20T12:27:18.027Z,90.66
2018-12-20T12:28:18.203Z,90.94
2018-12-20T12:29:18.398Z,90.47
2018-12-20T12:30:18.577Z,90.37
2018-12-20T12:31:18.767Z,90.19
2018-12-20T12:32:18.957Z,91.13
2018-12-20T12:33:19.140Z,90.37
2018-12-20T12:34:19.323Z,90.19
2018-12-20T12:35:19.510Z,89.90
2018-12-20T12:36:19.693Z,90.19
2018-12-20T12:37:19.878Z,90.28
2018-12-20T12:38:20.064Z,90.56
2018-12-20T12:39:20.250Z,90.19
2018-12-20T12:40:20.430Z,90.19
2018-12-20T12:41:20.624Z,89.42
2018-12-20T12:42:20.785Z,89.90
2018-12-20T12:43:20.964Z,90.37
2018-12-20T12:44:21.169Z,90.66
2018-12-20T12:45:21.335Z,90.75
2018-12-20T12:46:21.511Z,90.56
2018-12-20T12:47:21.705Z,89.90
2018-12-20T12:48:21.892Z,90.09
2018-12-20T12:49:24.082Z,90.00
2018-12-20T12:50:22.261Z,90.66
2018-12-20T12:51:22.445Z,91.13
2018-12-20T12:52:22.633Z,90.85
2018-12-20T12:53:22.817Z,90.66
2018-12-20T12:54:22.994Z,90.47